Time;durP1;ratioP1;P1;durP2;ratioP2;P2;SDS_P1;SDS_P2;PMS_P1;PMS_P2;Temp;Humidity;BMP_temperature;BMP_pressure;BME280_temperature;BME280_humidity;BME280_pressure;Samples;Min_cycle;Max_cycle;Signal;HPM_P1;HPM_P2
2022/09/08 00:00:13;;;;;;;;;;;;;;;18.67;57.02;101284.09;5134861;27;20374;-82
2022/09/08 00:02:39;;;;;;;;;;;;;;;18.65;57.18;101291.63;5134550;27;20014;-81
2022/09/08 00:05:04;;;;;;;;;;;;;;;18.70;57.29;101279.06;5134599;27;19918;-80
2022/09/08 00:07:31;;;;;;;;;;;;;;;18.69;57.28;101280.13;5116897;27;20383;-81
2022/09/08 00:09:56;;;;;;;;;;;;;;;18.70;57.05;101275.53;5134494;27;20017;-79
2022/09/08 00:12:22;;;;;;;;;;;;;;;18.69;57.45;101269.25;5135608;27;19958;-79
2022/09/08 00:14:48;;;;;;;;;;;;;;;18.70;57.58;101279.06;5134290;27;19911;-80
2022/09/08 00:17:14;;;;;;;;;;;;;;;18.71;57.38;101275.34;5116153;27;19931;-80
2022/09/08 00:19:39;;;;;;;;;;;;;;;18.72;57.20;101277.00;5134327;27;20292;-80
2022/09/08 00:22:04;;;;;;;;;;;;;;;18.72;57.34;101276.16;5134108;27;19911;-80
2022/09/08 00:24:29;;;;;;;;;;;;;;;18.74;57.46;101279.53;5134643;27;20543;-80
2022/09/08 00:26:55;;;;;;;;;;;;;;;18.68;57.96;101267.56;5134262;27;19911;-79
2022/09/08 00:29:20;;;;;;;;;;;;;;;18.66;57.74;101272.38;5134470;27;20387;-79
2022/09/08 00:31:45;;;;;;;;;;;;;;;18.62;57.93;101270.25;5134345;27;19911;-80
2022/09/08 00:34:11;;;;;;;;;;;;;;;18.59;58.05;101268.75;5134452;27;19912;-80
2022/09/08 00:36:37;;;;;;;;;;;;;;;18.59;57.94;101266.03;5133927;27;20298;-79
2022/09/08 00:39:02;;;;;;;;;;;;;;;18.61;58.03;101269.38;5134298;27;19911;-80
2022/09/08 00:41:28;;;;;;;;;;;;;;;18.56;58.40;101271.88;5134075;27;19945;-79
2022/09/08 00:44:00;;;;;;;;;;;;;;;18.53;58.20;101267.66;5115165;27;20002;-80
2022/09/08 00:46:29;;;;;;;;;;;;;;;18.48;58.49;101266.59;5116286;27;19957;-80
2022/09/08 00:49:00;;;;;;;;;;;;;;;18.44;58.78;101265.28;5133896;27;19912;-80
2022/09/08 00:51:25;;;;;;;;;;;;;;;18.43;58.90;101266.34;5115164;27;19915;-79
2022/09/08 00:53:51;;;;;;;;;;;;;;;18.40;59.12;101262.09;5134312;27;19915;-79
2022/09/08 00:56:16;;;;;;;;;;;;;;;18.38;58.98;101255.19;5116043;27;19947;-81
2022/09/08 00:58:41;;;;;;;;;;;;;;;18.34;59.16;101258.31;5134598;27;19959;-80
2022/09/08 01:01:07;;;;;;;;;;;;;;;18.32;59.11;101254.09;5116159;27;19915;-80
2022/09/08 01:03:32;;;;;;;;;;;;;;;18.24;59.65;101254.22;5115632;27;19915;-80
2022/09/08 01:06:18;;;;;;;;;;;;;;;18.29;59.47;101257.22;5116040;27;19968;-79
2022/09/08 01:14:15;;;;;;;;;;;;;;;18.12;59.75;101253.94;5134481;27;19984;-80
2022/09/08 01:16:42;;;;;;;;;;;;;;;18.12;60.15;101257.50;5133742;27;20367;-80
2022/09/08 01:19:27;;;;;;;;;;;;;;;18.13;60.19;101256.47;5115535;27;20356;-79
2022/09/08 01:21:53;;;;;;;;;;;;;;;18.08;60.03;101252.66;5134213;27;19911;-80
2022/09/08 01:24:27;;;;;;;;;;;;;;;18.08;59.97;101255.38;5115427;27;19917;-79
2022/09/08 01:27:04;;;;;;;;;;;;;;;18.06;59.75;101262.91;5115367;27;19998;-79
2022/09/08 01:29:30;;;;;;;;;;;;;;;18.03;60.20;101255.97;5133672;27;19955;-79
2022/09/08 01:31:55;;;;;;;;;;;;;;;17.96;60.49;101260.50;5115184;27;20059;-78
2022/09/08 01:34:21;;;;;;;;;;;;;;;17.98;60.35;101249.41;5133648;27;20268;-79
2022/09/08 01:36:46;;;;;;;;;;;;;;;17.92;60.48;101246.44;5097750;27;20331;-80
2022/09/08 01:39:11;;;;;;;;;;;;;;;17.98;60.26;101250.28;5133342;27;19912;-81
2022/09/08 01:41:37;;;;;;;;;;;;;;;17.90;60.61;101251.22;5132989;27;19915;-80
2022/09/08 01:44:02;;;;;;;;;;;;;;;17.93;60.36;101250.88;5115066;27;19914;-80
2022/09/08 01:46:28;;;;;;;;;;;;;;;17.93;60.37;101250.88;5133823;27;20329;-79
2022/09/08 01:48:53;;;;;;;;;;;;;;;17.88;60.45;101247.03;5133925;27;19918;-80
2022/09/08 01:51:19;;;;;;;;;;;;;;;17.85;60.61;101252.88;5133492;27;19907;-80
2022/09/08 01:53:44;;;;;;;;;;;;;;;17.85;60.64;101258.31;5132911;27;20380;-80
2022/09/08 01:56:09;;;;;;;;;;;;;;;17.84;60.94;101251.16;5114629;27;19912;-80
2022/09/08 01:58:34;;;;;;;;;;;;;;;17.79;61.18;101249.00;5133436;27;20262;-79
2022/09/08 02:01:00;;;;;;;;;;;;;;;17.80;60.91;101244.41;5133198;27;19954;-80
2022/09/08 02:03:26;;;;;;;;;;;;;;;17.80;61.21;101245.25;5133650;27;20278;-80
2022/09/08 02:05:51;;;;;;;;;;;;;;;17.83;61.14;101249.50;5133209;27;19936;-80
2022/09/08 02:08:16;;;;;;;;;;;;;;;17.82;61.16;101247.81;5133595;28;19964;-81
2022/09/08 02:10:42;;;;;;;;;;;;;;;17.77;61.34;101242.94;5114465;27;20341;-80
2022/09/08 02:13:07;;;;;;;;;;;;;;;17.79;61.59;101240.84;5133133;28;19968;-80
2022/09/08 02:15:32;;;;;;;;;;;;;;;17.75;61.72;101233.25;5114484;28;19911;-80
2022/09/08 02:17:58;;;;;;;;;;;;;;;17.74;61.87;101235.16;5133247;28;19911;-80
2022/09/08 02:20:23;;;;;;;;;;;;;;;17.72;61.55;101237.22;5133007;28;19915;-80
2022/09/08 02:22:48;;;;;;;;;;;;;;;17.66;61.99;101233.41;5132883;28;19911;-79
2022/09/08 02:25:14;;;;;;;;;;;;;;;17.65;61.86;101230.88;5115127;28;19918;-80
2022/09/08 02:27:39;;;;;;;;;;;;;;;17.67;62.23;101236.94;5133194;28;19968;-80
2022/09/08 02:30:07;;;;;;;;;;;;;;;17.69;61.91;101227.56;5133836;28;19961;-79
2022/09/08 02:32:33;;;;;;;;;;;;;;;17.71;62.00;101230.09;5132798;28;20375;-80
2022/09/08 02:34:59;;;;;;;;;;;;;;;17.70;61.81;101228.44;5133237;28;20386;-79
2022/09/08 02:37:24;;;;;;;;;;;;;;;17.69;61.96;101226.72;5115515;28;19915;-80
2022/09/08 02:39:49;;;;;;;;;;;;;;;17.66;62.01;101227.97;5115804;28;20011;-80
2022/09/08 02:42:16;;;;;;;;;;;;;;;17.63;62.39;101222.94;5133923;28;19911;-79
2022/09/08 02:44:41;;;;;;;;;;;;;;;17.59;62.58;101228.94;5132834;28;19930;-79
2022/09/08 02:47:06;;;;;;;;;;;;;;;17.63;62.27;101228.34;5132606;28;20311;-78
2022/09/08 02:49:32;;;;;;;;;;;;;;;17.59;62.50;101220.78;5133027;28;19969;-78
2022/09/08 02:51:58;;;;;;;;;;;;;;;17.61;62.49;101225.00;5132900;28;19936;-80
2022/09/08 02:54:23;;;;;;;;;;;;;;;17.50;62.81;101226.31;5114446;28;20407;-80
2022/09/08 02:56:49;;;;;;;;;;;;;;;17.57;62.85;101217.41;5133542;28;19911;-79
2022/09/08 02:59:14;;;;;;;;;;;;;;;17.58;62.66;101216.38;5133123;28;19919;-79
2022/09/08 03:01:40;;;;;;;;;;;;;;;17.61;62.67;101214.13;5132386;28;19917;-79
2022/09/08 03:04:05;;;;;;;;;;;;;;;17.61;62.57;101218.72;5132666;28;19934;-79
2022/09/08 03:06:31;;;;;;;;;;;;;;;17.61;62.74;101216.00;5114100;28;20440;-79
2022/09/08 03:08:56;;;;;;;;;;;;;;;17.61;62.75;101216.84;5132327;28;20302;-79
2022/09/08 03:11:21;;;;;;;;;;;;;;;17.61;62.90;101216.00;5132804;28;19941;-79
2022/09/08 03:13:47;;;;;;;;;;;;;;;17.56;62.87;101223.88;5133064;28;19914;-79
2022/09/08 03:16:12;;;;;;;;;;;;;;;17.58;62.85;101219.91;5132894;28;19912;-79
2022/09/08 03:18:37;;;;;;;;;;;;;;;17.62;62.97;101220.38;5133073;28;19919;-80
2022/09/08 03:21:04;;;;;;;;;;;;;;;17.63;62.64;101219.34;5114173;28;19951;-80
2022/09/08 03:23:31;;;;;;;;;;;;;;;17.68;62.53;101222.34;5115045;27;19918;-80
2022/09/08 03:26:00;;;;;;;;;;;;;;;17.67;62.47;101220.66;5136366;27;19907;-80
2022/09/08 03:28:25;;;;;;;;;;;;;;;17.66;62.52;101227.97;5135726;27;20017;-80
2022/09/08 03:30:50;;;;;;;;;;;;;;;17.67;62.53;101231.50;5136460;27;19911;-79
2022/09/08 03:33:16;;;;;;;;;;;;;;;17.68;62.77;101230.50;5118056;27;19915;-79
2022/09/08 03:35:41;;;;;;;;;;;;;;;17.64;63.09;101226.47;5135966;27;19915;-79
2022/09/08 03:38:06;;;;;;;;;;;;;;;17.68;62.82;101234.06;5101371;27;20324;-79
2022/09/08 03:40:32;;;;;;;;;;;;;;;17.68;63.07;101238.66;5136149;27;20029;-80
2022/09/08 03:42:58;;;;;;;;;;;;;;;17.68;63.02;101236.78;5117160;27;19912;-78
2022/09/08 03:45:23;;;;;;;;;;;;;;;17.67;63.03;101245.13;5135790;27;19974;-79
2022/09/08 03:47:48;;;;;;;;;;;;;;;17.67;63.38;101231.50;5135493;27;19912;-80
2022/09/08 03:50:14;;;;;;;;;;;;;;;17.71;62.92;101224.66;5135690;27;19912;-79
2022/09/08 03:52:39;;;;;;;;;;;;;;;17.68;63.29;101233.22;5117178;27;19915;-79
2022/09/08 03:55:05;;;;;;;;;;;;;;;17.69;63.10;101230.28;5135520;27;20025;-79
2022/09/08 03:57:30;;;;;;;;;;;;;;;17.69;63.20;101230.28;5135993;27;19918;-80
2022/09/08 03:59:56;;;;;;;;;;;;;;;17.70;63.54;101234.69;5116109;27;19915;-79
2022/09/08 04:02:22;;;;;;;;;;;;;;;17.75;63.26;101225.97;5116967;27;20298;-79
2022/09/08 04:04:48;;;;;;;;;;;;;;;17.79;63.09;101227.25;5134819;27;19915;-79
2022/09/08 04:07:14;;;;;;;;;;;;;;;17.74;63.65;101235.16;5134668;27;19964;-81
2022/09/08 04:09:40;;;;;;;;;;;;;;;17.80;63.51;101228.94;5135133;27;19911;-79
2022/09/08 04:12:05;;;;;;;;;;;;;;;17.78;63.60;101231.00;5135396;27;19912;-80
2022/09/08 04:14:31;;;;;;;;;;;;;;;17.82;63.35;101224.19;5135453;27;19917;-79
2022/09/08 04:16:57;;;;;;;;;;;;;;;17.83;63.65;101222.28;5135573;27;20345;-80
2022/09/08 04:19:22;;;;;;;;;;;;;;;17.84;63.66;101230.28;5134759;27;19934;-80
2022/09/08 04:21:47;;;;;;;;;;;;;;;17.84;63.68;101230.28;5134667;27;19923;-80
2022/09/08 04:24:12;;;;;;;;;;;;;;;17.89;63.55;101225.09;5135332;27;19915;-79
2022/09/08 04:26:38;;;;;;;;;;;;;;;17.95;63.32;101231.59;5135121;27;20405;-79
2022/09/08 04:29:03;;;;;;;;;;;;;;;18.01;63.28;101230.84;5116285;27;19920;-80
2022/09/08 04:31:29;;;;;;;;;;;;;;;18.02;63.16;101239.81;5133791;27;19944;-79
2022/09/08 04:33:55;;;;;;;;;;;;;;;18.07;63.22;101234.63;5133817;27;20291;-79
2022/09/08 04:36:20;;;;;;;;;;;;;;;18.17;62.71;101245.19;5134128;27;19911;-79
2022/09/08 04:38:46;;;;;;;;;;;;;;;18.21;62.70;101244.59;5134848;27;19908;-80
2022/09/08 04:41:12;;;;;;;;;;;;;;;18.29;62.11;101241.72;5134481;27;20018;-79
2022/09/08 04:43:38;;;;;;;;;;;;;;;18.34;62.19;101246.59;5133680;27;19915;-80
2022/09/08 04:46:04;;;;;;;;;;;;;;;18.40;61.72;101245.78;5115728;27;20445;-79
2022/09/08 04:48:30;;;;;;;;;;;;;;;18.50;61.22;101250.91;5134230;27;20366;-79
2022/09/08 04:50:55;;;;;;;;;;;;;;;18.60;60.94;101247.81;5133819;27;19911;-79
2022/09/08 04:53:21;;;;;;;;;;;;;;;18.67;60.63;101254.97;5134178;27;19915;-79
2022/09/08 04:55:46;;;;;;;;;;;;;;;18.70;60.51;101262.75;5134035;27;20294;-79
2022/09/08 04:58:12;;;;;;;;;;;;;;;18.81;60.53;101263.28;5134212;27;19922;-78
2022/09/08 05:00:37;;;;;;;;;;;;;;;18.95;60.29;101270.47;5115584;27;19915;-79
2022/09/08 05:03:03;;;;;;;;;;;;;;;18.97;59.73;101265.66;5134395;27;19920;-80
2022/09/08 05:05:28;;;;;;;;;;;;;;;19.04;59.66;101263.81;5133661;27;20450;-80
2022/09/08 05:07:53;;;;;;;;;;;;;;;19.17;59.47;101273.91;5133186;27;19964;-80
2022/09/08 05:10:18;;;;;;;;;;;;;;;19.23;59.00;101269.56;5115528;27;20002;-80
2022/09/08 05:12:44;;;;;;;;;;;;;;;19.37;58.91;101269.41;5116244;27;19919;-78
2022/09/08 05:15:09;;;;;;;;;;;;;;;19.50;58.69;101279.53;5134382;27;19911;-79
2022/09/08 05:17:34;;;;;;;;;;;;;;;19.57;58.18;101266.75;5116848;27;19911;-79
2022/09/08 05:20:00;;;;;;;;;;;;;;;19.75;57.74;101268.06;5133563;27;19911;-80
2022/09/08 05:22:25;;;;;;;;;;;;;;;20.02;57.43;101264.34;5133186;27;20366;-81
2022/09/08 05:24:52;;;;;;;;;;;;;;;20.44;56.43;101267.69;5115010;27;20315;-80
2022/09/08 05:27:17;;;;;;;;;;;;;;;20.80;54.40;101262.81;5133170;27;20439;-80
2022/09/08 05:29:43;;;;;;;;;;;;;;;21.20;53.91;101269.00;5133484;27;19911;-80
2022/09/08 05:32:08;;;;;;;;;;;;;;;21.64;52.75;101263.78;5133236;27;19919;-80
2022/09/08 05:34:34;;;;;;;;;;;;;;;22.03;51.96;101262.66;5132856;27;19917;-80
2022/09/08 05:36:59;;;;;;;;;;;;;;;22.43;51.27;101267.84;5133173;27;19911;-80
2022/09/08 05:39:24;;;;;;;;;;;;;;;22.81;49.87;101274.22;5133120;27;19930;-80
2022/09/08 05:41:49;;;;;;;;;;;;;;;23.17;48.83;101270.66;5133180;27;19961;-80
2022/09/08 05:44:15;;;;;;;;;;;;;;;23.57;47.58;101261.91;5115342;27;19911;-80
2022/09/08 05:46:40;;;;;;;;;;;;;;;23.90;47.01;101260.59;5132641;27;20385;-80
2022/09/08 05:49:05;;;;;;;;;;;;;;;24.13;46.26;101257.91;5132421;27;20275;-80
2022/09/08 05:51:32;;;;;;;;;;;;;;;24.40;44.85;101258.28;5132910;27;19911;-81
2022/09/08 05:53:58;;;;;;;;;;;;;;;24.66;44.58;101258.09;5132633;27;19911;-80
2022/09/08 05:56:23;;;;;;;;;;;;;;;24.96;44.63;101258.75;5132027;27;20378;-80
2022/09/08 05:58:49;;;;;;;;;;;;;;;25.32;43.67;101267.78;5132801;27;19972;-80
2022/09/08 06:01:15;;;;;;;;;;;;;;;25.52;43.02;101266.50;5132490;27;19957;-80
2022/09/08 06:03:40;;;;;;;;;;;;;;;25.85;42.53;101266.59;5113371;28;19943;-81
2022/09/08 06:06:07;;;;;;;;;;;;;;;26.18;41.88;101264.97;5113739;28;20424;-82
2022/09/08 06:08:32;;;;;;;;;;;;;;;26.32;41.42;101259.94;5131992;27;19976;-81
2022/09/08 06:10:57;;;;;;;;;;;;;;;26.57;40.72;101267.78;5131790;28;19912;-80
2022/09/08 06:13:23;;;;;;;;;;;;;;;26.71;40.14;101258.09;5113623;28;19911;-82
2022/09/08 06:15:48;;;;;;;;;;;;;;;26.69;39.97;101263.03;5131668;28;19918;-81
2022/09/08 06:18:14;;;;;;;;;;;;;;;27.04;39.99;101266.50;5131763;28;19936;-81
2022/09/08 06:20:39;;;;;;;;;;;;;;;27.26;39.21;101263.78;5132018;28;19940;-81
2022/09/08 06:23:05;;;;;;;;;;;;;;;26.77;40.00;101263.69;5131615;28;20303;-81
2022/09/08 06:25:30;;;;;;;;;;;;;;;26.92;40.36;101264.69;5131813;28;19937;-80
2022/09/08 06:28:09;;;;;;;;;;;;;;;27.19;39.65;101272.22;5131640;28;19938;-81
2022/09/08 06:30:34;;;;;;;;;;;;;;;27.20;39.09;101264.81;5131724;28;19923;-82
2022/09/08 06:32:59;;;;;;;;;;;;;;;27.21;39.77;101263.72;5132324;28;19912;-82
2022/09/08 06:35:27;;;;;;;;;;;;;;;27.30;39.27;101265.78;5132153;28;19964;-81
2022/09/08 06:37:56;;;;;;;;;;;;;;;27.04;39.26;101267.38;5096370;28;19951;-81
2022/09/08 06:40:24;;;;;;;;;;;;;;;27.28;39.11;101267.13;5131645;28;20289;-82
2022/09/08 06:42:54;;;;;;;;;;;;;;;27.66;38.81;101276.38;5131461;28;19911;-81
2022/09/08 06:45:23;;;;;;;;;;;;;;;27.62;38.50;101280.75;5113034;28;20362;-81
2022/09/08 06:47:57;;;;;;;;;;;;;;;27.18;39.05;101278.81;5131262;28;19915;-81
2022/09/08 06:50:22;;;;;;;;;;;;;;;27.50;39.16;101276.19;5112886;28;19917;-82
2022/09/08 06:52:48;;;;;;;;;;;;;;;26.86;39.46;101289.72;5112771;28;20005;-81
2022/09/08 06:55:18;;;;;;;;;;;;;;;25.80;41.53;101280.25;5131523;28;19911;-81
2022/09/08 06:57:59;;;;;;;;;;;;;;;26.20;41.09;101279.34;5132724;27;20302;-80
2022/09/08 07:00:24;;;;;;;;;;;;;;;26.16;40.86;101285.59;5135431;27;19919;-81
2022/09/08 07:03:02;;;;;;;;;;;;;;;26.76;39.95;101276.59;5135232;27;20002;-81
2022/09/08 07:05:31;;;;;;;;;;;;;;;27.06;39.44;101281.72;5116661;27;19911;-81
2022/09/08 07:08:16;;;;;;;;;;;;;;;27.40;38.88;101281.63;5135091;27;20374;-81
2022/09/08 07:10:44;;;;;;;;;;;;;;;27.07;38.49;101277.06;5133934;27;19949;-81
2022/09/08 07:13:12;;;;;;;;;;;;;;;27.41;38.25;101294.31;5116266;27;20014;-82
2022/09/08 07:15:58;;;;;;;;;;;;;;;26.87;38.57;101288.63;5134666;27;20406;-82
2022/09/08 07:18:42;;;;;;;;;;;;;;;26.92;39.00;101285.94;5116887;27;19940;-81
2022/09/08 07:21:19;;;;;;;;;;;;;;;27.07;38.14;101282.56;5137138;27;19911;-80
2022/09/08 07:23:45;;;;;;;;;;;;;;;27.02;38.64;101288.00;5120426;27;20336;-81
2022/09/08 07:26:41;;;;;;;;;;;;;;;26.94;38.55;101286.53;5117796;27;19911;-81
2022/09/08 07:29:09;;;;;;;;;;;;;;;27.11;38.25;101290.09;5113478;27;19911;-82
2022/09/08 07:31:35;;;;;;;;;;;;;;;27.48;37.28;101283.91;5116389;27;20006;-82
2022/09/08 07:34:05;;;;;;;;;;;;;;;27.29;38.11;101288.94;5116554;27;20009;-82
2022/09/08 07:36:41;;;;;;;;;;;;;;;27.28;37.88;101289.22;5134817;27;19961;-82
2022/09/08 07:39:19;;;;;;;;;;;;;;;27.48;37.17;101294.13;5116217;27;19998;-82
2022/09/08 07:41:45;;;;;;;;;;;;;;;27.40;37.28;101295.41;5116251;27;19969;-83
2022/09/08 07:44:17;;;;;;;;;;;;;;;27.83;36.92;101298.38;5115809;27;20420;-83
2022/09/08 07:46:46;;;;;;;;;;;;;;;28.21;36.43;101297.34;5134524;27;19911;-82
2022/09/08 07:49:30;;;;;;;;;;;;;;;27.94;36.29;101314.00;5115872;27;19950;-82
2022/09/08 07:51:55;;;;;;;;;;;;;;;28.29;35.55;101298.81;5134472;27;19915;-82
2022/09/08 07:54:21;;;;;;;;;;;;;;;28.62;34.65;101298.53;5134113;27;19931;-82
2022/09/08 07:56:48;;;;;;;;;;;;;;;29.12;34.31;101304.66;5134702;27;20382;-82
2022/09/08 07:59:19;;;;;;;;;;;;;;;29.35;34.98;101305.31;5115959;27;19915;-81
2022/09/08 08:01:55;;;;;;;;;;;;;;;29.72;34.23;101302.41;5134340;27;19915;-82
2022/09/08 08:04:26;;;;;;;;;;;;;;;29.60;33.58;101308.16;5098505;27;19911;-82
2022/09/08 08:06:52;;;;;;;;;;;;;;;29.91;33.37;101301.88;5133626;27;20243;-82
2022/09/08 08:09:20;;;;;;;;;;;;;;;30.79;31.67;101296.03;5132971;27;19915;-81
2022/09/08 08:11:48;;;;;;;;;;;;;;;31.48;30.40;101294.41;5134100;27;19918;-81
2022/09/08 08:14:17;;;;;;;;;;;;;;;31.21;31.16;101303.16;5133897;27;19911;-81
2022/09/08 08:16:49;;;;;;;;;;;;;;;32.37;29.56;101297.13;5134207;27;19958;-82
2022/09/08 08:19:17;;;;;;;;;;;;;;;32.52;29.50;101299.00;5133629;27;19915;-81
2022/09/08 08:22:06;;;;;;;;;;;;;;;33.09;28.91;101287.25;5115651;27;19911;-82
2022/09/08 08:24:47;;;;;;;;;;;;;;;31.80;30.54;101287.56;5085342;27;19912;-81
2022/09/08 08:27:15;;;;;;;;;;;;;;;32.91;29.30;101284.06;5133493;27;19912;-82
2022/09/08 08:30:09;;;;;;;;;;;;;;;33.69;28.38;101281.16;5133196;27;20018;-82
2022/09/08 08:32:35;;;;;;;;;;;;;;;34.05;27.47;101289.78;5111301;27;19921;-81
2022/09/08 08:35:01;;;;;;;;;;;;;;;34.79;26.63;101286.25;5114979;27;19911;-81
2022/09/08 08:37:27;;;;;;;;;;;;;;;34.22;27.11;101283.66;5134090;27;20002;-81
2022/09/08 08:39:53;;;;;;;;;;;;;;;34.01;27.41;101281.19;5115080;27;19946;-82
2022/09/08 08:42:37;;;;;;;;;;;;;;;34.85;25.64;101280.28;5133281;27;19911;-82
2022/09/08 08:45:11;;;;;;;;;;;;;;;34.74;26.46;101289.16;5133707;27;19911;-82
2022/09/08 08:47:43;;;;;;;;;;;;;;;34.65;26.35;101287.09;5133484;27;20019;-82
2022/09/08 08:50:31;;;;;;;;;;;;;;;34.95;26.27;101279.22;5132710;27;19911;-82
2022/09/08 08:53:15;;;;;;;;;;;;;;;34.30;26.14;101290.50;5114670;27;19911;-82
2022/09/08 08:55:45;;;;;;;;;;;;;;;34.81;26.07;101282.03;5133076;27;19934;-81
2022/09/08 08:58:16;;;;;;;;;;;;;;;34.44;26.82;101275.47;5114211;27;20010;-81
2022/09/08 09:01:02;;;;;;;;;;;;;;;35.03;25.80;101272.94;5133299;27;19960;-82
2022/09/08 09:03:33;;;;;;;;;;;;;;;34.68;26.52;101275.31;5132482;27;19972;-81
2022/09/08 09:06:04;;;;;;;;;;;;;;;33.58;28.11;101270.16;5132883;27;20366;-82
2022/09/08 09:08:39;;;;;;;;;;;;;;;33.84;28.00;101267.81;5132635;27;20335;-81
2022/09/08 09:11:13;;;;;;;;;;;;;;;35.50;25.97;101262.41;5132775;27;20403;-82
2022/09/08 09:13:43;;;;;;;;;;;;;;;35.54;25.48;101261.78;5132270;27;19956;-82
2022/09/08 09:16:18;;;;;;;;;;;;;;;36.19;24.83;101266.94;5114224;27;19915;-82
2022/09/08 09:18:43;;;;;;;;;;;;;;;36.99;23.53;101255.78;5113656;27;19907;-82
2022/09/08 09:21:14;;;;;;;;;;;;;;;35.51;25.60;101258.47;5131581;27;19912;-81
2022/09/08 09:23:55;;;;;;;;;;;;;;;34.09;27.46;101267.69;5132454;27;20388;-81
2022/09/08 09:26:20;;;;;;;;;;;;;;;34.53;26.47;101256.00;5132775;27;19950;-81
2022/09/08 09:28:46;;;;;;;;;;;;;;;36.54;24.26;101253.13;5114002;27;19966;-81
2022/09/08 09:31:40;;;;;;;;;;;;;;;35.72;24.93;101252.44;5132320;27;19918;-81
2022/09/08 09:34:06;;;;;;;;;;;;;;;34.20;27.53;101246.88;5040886;27;19954;-82
2022/09/08 09:36:49;;;;;;;;;;;;;;;34.10;27.75;101253.47;5132474;27;19911;-82
2022/09/08 09:39:18;;;;;;;;;;;;;;;34.05;27.43;101245.16;5132634;27;20393;-80
2022/09/08 09:41:51;;;;;;;;;;;;;;;34.75;26.34;101244.19;5114151;27;19911;-82
2022/09/08 09:44:17;;;;;;;;;;;;;;;34.93;26.16;101247.16;5132094;27;19911;-82
2022/09/08 09:46:45;;;;;;;;;;;;;;;34.75;25.90;101240.56;5132321;27;20390;-82
2022/09/08 09:49:13;;;;;;;;;;;;;;;35.15;26.22;101246.47;5131945;27;19915;-82
2022/09/08 09:51:48;;;;;;;;;;;;;;;34.26;27.47;101245.66;5132166;27;19911;-82
2022/09/08 09:54:20;;;;;;;;;;;;;;;34.77;26.55;101246.66;5113914;27;19915;-81
2022/09/08 09:56:45;;;;;;;;;;;;;;;36.47;24.52;101244.38;5113770;27;20256;-82
2022/09/08 09:59:23;;;;;;;;;;;;;;;36.45;23.72;101246.66;5113205;27;20039;-81
2022/09/08 10:02:08;;;;;;;;;;;;;;;36.57;23.64;101241.28;5131914;27;19915;-81
2022/09/08 10:04:55;;;;;;;;;;;;;;;36.16;24.61;101244.38;5080347;27;20255;-83
2022/09/08 10:07:23;;;;;;;;;;;;;;;37.10;23.68;101233.91;5113532;27;20302;-82
2022/09/08 10:09:54;;;;;;;;;;;;;;;37.77;22.67;101229.84;5131511;27;19998;-82
2022/09/08 10:12:26;;;;;;;;;;;;;;;36.85;23.02;101227.06;5131990;28;19957;-81
2022/09/08 10:15:03;;;;;;;;;;;;;;;35.67;25.41;101235.78;5113110;28;20002;-81
2022/09/08 10:17:38;;;;;;;;;;;;;;;35.14;26.01;101226.06;5131351;28;19918;-82
2022/09/08 10:20:11;;;;;;;;;;;;;;;36.61;24.31;101228.31;5131554;28;19940;-81
2022/09/08 10:22:56;;;;;;;;;;;;;;;36.01;25.01;101232.41;5113706;28;19953;-82
2022/09/08 10:25:21;;;;;;;;;;;;;;;34.82;26.46;101225.03;5131560;28;19960;-82
2022/09/08 10:27:46;;;;;;;;;;;;;;;34.00;27.65;101220.16;5131680;28;19919;-81
2022/09/08 10:30:41;;;;;;;;;;;;;;;35.61;25.55;101220.25;5131323;28;20298;-82
2022/09/08 10:33:21;;;;;;;;;;;;;;;35.87;25.07;101217.66;5111106;27;19931;-82
2022/09/08 10:35:47;;;;;;;;;;;;;;;32.73;28.39;101231.94;5135868;27;20010;-82
2022/09/08 10:38:30;;;;;;;;;;;;;;;32.18;30.01;101221.91;5135709;27;19947;-84
2022/09/08 10:40:56;;;;;;;;;;;;;;;32.85;29.69;101231.53;5135636;27;19930;-83
2022/09/08 10:43:36;;;;;;;;;;;;;;;33.82;28.96;101224.63;5135734;27;19911;-82
2022/09/08 10:46:20;;;;;;;;;;;;;;;34.34;27.27;101236.56;5135952;27;20302;-81
2022/09/08 10:48:54;;;;;;;;;;;;;;;33.65;28.92;101225.19;5117668;27;19915;-82
2022/09/08 10:51:39;;;;;;;;;;;;;;;33.19;29.54;101223.03;5135390;27;19915;-83
2022/09/08 10:54:05;;;;;;;;;;;;;;;34.01;27.96;101216.22;5117060;27;19960;-82
2022/09/08 10:56:30;;;;;;;;;;;;;;;33.96;28.30;101213.50;5135293;27;20003;-82
2022/09/08 10:58:55;;;;;;;;;;;;;;;33.61;29.47;101215.75;5135274;27;19922;-82
2022/09/08 11:01:20;;;;;;;;;;;;;;;33.08;29.00;101204.81;5135586;27;19915;-83
2022/09/08 11:03:52;;;;;;;;;;;;;;;32.05;31.00;101211.47;5135591;27;20414;-82
2022/09/08 11:06:23;;;;;;;;;;;;;;;32.04;31.29;101209.81;5134854;27;19984;-83
2022/09/08 11:08:51;;;;;;;;;;;;;;;32.35;30.76;101201.16;5135120;27;19958;-82
2022/09/08 11:11:36;;;;;;;;;;;;;;;33.26;29.84;101198.41;5135327;27;19911;-81
2022/09/08 11:14:11;;;;;;;;;;;;;;;32.46;30.60;101205.50;5135495;27;19964;-84
2022/09/08 11:16:59;;;;;;;;;;;;;;;31.50;31.71;101219.94;5135260;27;19911;-82
2022/09/08 11:19:46;;;;;;;;;;;;;;;30.40;33.34;101210.66;5132142;27;19908;-82
2022/09/08 11:22:35;;;;;;;;;;;;;;;30.28;34.60;101201.81;5127455;27;20449;-82
2022/09/08 11:25:19;;;;;;;;;;;;;;;30.26;34.57;101215.13;5097490;27;19994;-82
2022/09/08 11:27:54;;;;;;;;;;;;;;;30.27;33.24;101211.25;5142678;27;19939;-81
2022/09/08 11:30:20;;;;;;;;;;;;;;;30.02;34.56;101210.13;5135436;27;19918;-81
2022/09/08 11:32:48;;;;;;;;;;;;;;;29.96;34.59;101205.69;5135809;27;20435;-81
2022/09/08 11:35:21;;;;;;;;;;;;;;;30.18;34.36;101207.34;5135213;27;19911;-81
2022/09/08 11:38:05;;;;;;;;;;;;;;;30.08;35.03;101202.63;5116623;27;19915;-81
2022/09/08 11:40:49;;;;;;;;;;;;;;;29.03;37.03;101209.34;5134412;27;19911;-81
2022/09/08 11:43:18;;;;;;;;;;;;;;;28.59;37.61;101215.28;5134495;27;19911;-81
2022/09/08 11:46:15;;;;;;;;;;;;;;;28.27;38.37;101202.31;5115319;27;19964;-82
2022/09/08 11:48:50;;;;;;;;;;;;;;;28.90;37.68;101198.81;5077728;27;19920;-82
2022/09/08 11:51:27;;;;;;;;;;;;;;;28.46;38.36;101190.81;5135042;27;19915;-81
2022/09/08 11:53:55;;;;;;;;;;;;;;;27.58;39.76;101203.94;5134329;27;19918;-82
2022/09/08 11:56:20;;;;;;;;;;;;;;;27.82;40.17;101200.84;5134477;27;20369;-84
2022/09/08 11:58:50;;;;;;;;;;;;;;;27.82;40.44;101192.56;5134248;27;19915;-81
2022/09/08 12:01:21;;;;;;;;;;;;;;;27.94;40.25;101195.16;5134393;27;19915;-83
2022/09/08 12:03:58;;;;;;;;;;;;;;;27.75;39.93;101189.19;5134295;27;19918;-82
2022/09/08 12:06:42;;;;;;;;;;;;;;;28.06;39.64;101201.34;5133962;27;19911;-83
2022/09/08 12:09:16;;;;;;;;;;;;;;;28.14;39.58;101202.75;5134587;27;19922;-81
2022/09/08 12:11:51;;;;;;;;;;;;;;;27.92;40.31;101192.66;5119645;27;20048;-81
2022/09/08 12:14:16;;;;;;;;;;;;;;;28.04;39.84;101189.72;5138118;27;19912;-82
2022/09/08 12:16:41;;;;;;;;;;;;;;;27.66;41.59;101190.75;5134815;27;19911;-82
2022/09/08 12:19:07;;;;;;;;;;;;;;;27.09;41.32;101200.34;5134235;27;20467;-82
2022/09/08 12:21:36;;;;;;;;;;;;;;;27.40;41.14;101198.78;5135270;27;19918;-81
2022/09/08 12:24:11;;;;;;;;;;;;;;;27.22;41.28;101186.16;5134039;27;20288;-81
2022/09/08 12:26:53;;;;;;;;;;;;;;;27.28;41.39;101198.13;5115694;27;19997;-81
2022/09/08 12:29:22;;;;;;;;;;;;;;;26.85;42.41;101180.47;5115007;27;19915;-81
2022/09/08 12:31:53;;;;;;;;;;;;;;;26.67;42.72;101185.22;5133755;27;19912;-81
2022/09/08 12:34:31;;;;;;;;;;;;;;;26.45;43.58;101189.84;5115045;27;19994;-80
2022/09/08 12:37:20;;;;;;;;;;;;;;;26.46;43.85;101175.81;5133443;27;19912;-82
2022/09/08 12:39:49;;;;;;;;;;;;;;;26.64;43.58;101184.88;5120082;27;20383;-81
2022/09/08 12:42:17;;;;;;;;;;;;;;;26.82;43.57;101186.50;5133589;27;19919;-81
2022/09/08 12:45:01;;;;;;;;;;;;;;;26.45;44.37;101178.81;5114939;27;19934;-82
2022/09/08 12:47:29;;;;;;;;;;;;;;;26.29;44.10;101172.25;5133560;27;19918;-83
2022/09/08 12:49:55;;;;;;;;;;;;;;;26.44;43.82;101174.41;5120204;27;19918;-82
2022/09/08 12:52:38;;;;;;;;;;;;;;;26.37;44.81;101168.25;5123067;27;19966;-82